सभी
Williamson Airfield Airport (Rockhampton, Queensland) YWIS मौसम
|
Rockhampton, Queensland (YWIS)
स्वच्छ आकाश
हल्की हवाएं |
|
27 °C |
There is no TAF data available at YWIS or any nearby airports.
Recent YWIS METAR history
| Date | Time (AEST) | Flight Rules | Wind Dir. | Speed | Type | Height AGL (ft) | Visibility | Temp (°C) | Temp (°F) | Dew Point (°C) | Dew Point (°F) | Rel. Humid. | Pressure | Density Altitude | Remarks |
|---|---|---|---|---|---|---|---|---|---|---|---|---|---|---|---|
| 04-मई | 11:00 | n/a | 130° | 5 kt | Missing | 27° | 80° | 18° | 64° | 58% | 1016 mb | 1,447 ft | |||
| 04-मई | 10:00 | n/a | 50° | 4 kt | Missing | 27° | 80° | 18° | 64° | 58% | 1017 mb | 1,417 ft | |||
| 04-मई | 09:00 | n/a | 190° | 5 kt | Missing | 24° | 75° | 20° | 68° | 78% | 1017 mb | 1,057 ft | |||
| 04-मई | 08:00 | n/a | 200° | 6 kt | Missing | 22° | 71° | 19° | 66° | 83% | 1017 mb | 817 ft | |||
| 04-मई | 07:00 | n/a | 260° | 1 kt | Missing | 19° | 66° | 19° | 66° | 100% | 1016 mb | 487 ft | |||
| 04-मई | 06:00 | n/a | 270° | 3 kt | Missing | 19° | 66° | 19° | 66° | 100% | 1016 mb | 487 ft | |||
| 04-मई | 05:00 | n/a | 290° | 1 kt | Missing | 20° | 68° | 19° | 66° | 94% | 1016 mb | 607 ft | |||
| 04-मई | 04:00 | n/a | Calm | Missing | 20° | 68° | 19° | 66° | 94% | 1016 mb | 607 ft | ||||
| 04-मई | 03:00 | n/a | Calm | Missing | 21° | 69° | 19° | 66° | 88% | 1016 mb | 727 ft | ||||
| 04-मई | 02:00 | n/a | 190° | 2 kt | Missing | 22° | 71° | 19° | 66° | 83% | 1016 mb | 847 ft | |||
| 04-मई | 01:00 | n/a | 140° | 4 kt | Missing | 22° | 71° | 19° | 66° | 83% | 1016 mb | 847 ft | |||
| 04-मई | 00:00 | n/a | 150° | 3 kt | Missing | 21° | 69° | 19° | 66° | 88% | 1017 mb | 697 ft | |||
| 03-मई | 23:00 | n/a | 150° | 3 kt | Missing | 22° | 71° | 19° | 66° | 83% | 1017 mb | 817 ft | |||
| 03-मई | 22:00 | n/a | 120° | 5 kt | Missing | 23° | 73° | 19° | 66° | 78% | 1017 mb | 937 ft | |||
| 03-मई | 21:00 | n/a | 110° | 2 kt | Missing | 21° | 69° | 19° | 66° | 88% | 1018 mb | 667 ft | |||
| 03-मई | 20:00 | n/a | 140° | 3 kt | Missing | 22° | 71° | 19° | 66° | 83% | 1017 mb | 817 ft | |||
| 03-मई | 19:00 | n/a | 130° | 3 kt | Missing | 22° | 71° | 19° | 66° | 83% | 1017 mb | 817 ft | |||
| 03-मई | 18:00 | n/a | 120° | 4 kt | Missing | 23° | 73° | 19° | 66° | 78% | 1016 mb | 967 ft | |||
| 03-मई | 17:00 | n/a | 120° | 7 kt | Missing | 25° | 77° | 19° | 66° | 69% | 1016 mb | 1,207 ft | |||
| 03-मई | 16:00 | n/a | 120° | 6 kt | Missing | 25° | 77° | 20° | 68° | 74% | 1015 mb | 1,236 ft | |||
| 03-मई | 15:00 | n/a | 110° | 7 kt | Missing | 25° | 77° | 20° | 68° | 74% | 1015 mb | 1,236 ft | |||
| 03-मई | 14:00 | n/a | 120° | 9 kt | Missing | 26° | 78° | 19° | 66° | 65% | 1015 mb | 1,356 ft | |||
| 03-मई | 13:00 | n/a | 120° | 7 kt | Missing | 25° | 77° | 21° | 69° | 79% | 1016 mb | 1,207 ft | |||
| 03-मई | 12:00 | n/a | 110° | 8 kt | Missing | 26° | 78° | 22° | 71° | 79% | 1016 mb | 1,327 ft |
लॉगिन
| Your browser is unsupported. अपना ब्राऊजर अपग्रेड करें |
